Terminal Aerodrome Forecast
Issued by NWS Louisville, KY

Home | Current Version | Previous Version | Text Only | Print | Product List | Glossary On
Versions: 1 2 3 4 5 6 7 8 9 10 11 12 13 14 15 16 17 18
000
FTUS43 KLMK 211700
TAFSDF
TAF
KSDF 211730Z 2118/2224 24010KT P6SM SCT050 BKN150
     FM220100 21005KT P6SM BKN250
     FM221500 25008KT P6SM SCT050 BKN250=

USA.gov is the U.S. government's official web portal to all federal, state and local government web resources and services.